createdAt,value
2019-05-01T00:01:21.677Z,97936.20
2019-05-01T00:04:18.836Z,97933.56
2019-05-01T00:06:51.549Z,97933.97
2019-05-01T00:09:22.275Z,97926.34
2019-05-01T00:11:52.805Z,97927.20
2019-05-01T00:14:23.262Z,97926.80
2019-05-01T00:16:54.680Z,97917.59
2019-05-01T00:19:25.080Z,97916.47
2019-05-01T00:21:57.155Z,97918.59
2019-05-01T00:24:27.448Z,97907.62
2019-05-01T00:26:59.512Z,97902.99
2019-05-01T00:29:30.134Z,97903.52
2019-05-01T00:32:01.295Z,97904.68
2019-05-01T00:34:31.587Z,97907.75
2019-05-01T00:37:01.978Z,97907.64
2019-05-01T00:39:32.294Z,97910.00
2019-05-01T00:42:02.582Z,97905.73
2019-05-01T00:44:32.927Z,97901.89
2019-05-01T00:47:03.226Z,97905.89
2019-05-01T00:49:33.575Z,97902.94
2019-05-01T00:52:04.124Z,97901.94
2019-05-01T00:54:36.087Z,97900.61
2019-05-01T00:57:16.892Z,97905.70
2019-05-01T01:03:00.981Z,97899.16
2019-05-01T01:05:31.252Z,97897.33
2019-05-01T01:08:02.146Z,97902.80
2019-05-01T01:10:32.498Z,97896.64
2019-05-01T01:13:02.918Z,97896.83
2019-05-01T01:15:33.273Z,97895.70
2019-05-01T01:18:03.664Z,97900.28
2019-05-01T01:20:34.211Z,97887.52
2019-05-01T01:23:04.841Z,97880.27
2019-05-01T01:25:35.744Z,97886.36
2019-05-01T01:28:06.350Z,97880.58
2019-05-01T01:30:37.061Z,97883.84
2019-05-01T01:33:07.450Z,97880.50
2019-05-01T01:35:38.608Z,97871.16
2019-05-01T01:38:08.955Z,97879.18
2019-05-01T01:40:39.564Z,97866.84
2019-05-01T01:43:27.870Z,97865.60
2019-05-01T01:46:00.271Z,97867.64
2019-05-01T01:48:30.998Z,97870.11
2019-05-01T01:51:01.854Z,97868.17
2019-05-01T01:53:35.444Z,97863.32
2019-05-01T01:56:05.960Z,97862.22
2019-05-01T01:58:38.271Z,97860.39
2019-05-01T02:01:39.294Z,97866.59
2019-05-01T02:04:28.739Z,97866.77
2019-05-01T02:06:59.671Z,97861.83
2019-05-01T02:09:30.250Z,97860.00
2019-05-01T02:12:05.131Z,97853.48
2019-05-01T02:14:38.716Z,97856.66
2019-05-01T02:17:09.189Z,97856.45
2019-05-01T02:19:40.740Z,97865.16
2019-05-01T02:22:11.378Z,97863.15
2019-05-01T02:24:41.597Z,97857.36
2019-05-01T02:27:17.529Z,97859.59
2019-05-01T02:29:52.657Z,97854.66
2019-05-01T02:32:26.126Z,97855.84
2019-05-01T02:34:58.073Z,97851.80
2019-05-01T02:37:31.266Z,97848.05
2019-05-01T02:40:06.681Z,97846.23
2019-05-01T02:42:40.898Z,97849.88
2019-05-01T02:45:11.730Z,97846.13
2019-05-01T02:47:45.552Z,97848.45
2019-05-01T02:50:16.538Z,97843.89
2019-05-01T02:52:47.075Z,97845.94
2019-05-01T02:55:32.959Z,97845.33
2019-05-01T02:58:03.991Z,97850.39
2019-05-01T03:02:52.934Z,97834.98
2019-05-01T03:05:23.552Z,97839.33
2019-05-01T03:07:54.431Z,97846.24
2019-05-01T03:10:46.602Z,97848.98
2019-05-01T03:13:20.472Z,97844.22
2019-05-01T03:15:51.637Z,97845.31
2019-05-01T03:18:30.654Z,97845.23
2019-05-01T03:21:39.397Z,97847.95
2019-05-01T03:24:18.384Z,97845.52
2019-05-01T03:26:52.074Z,97841.97
2019-05-01T03:29:22.934Z,97846.64
2019-05-01T03:32:15.429Z,97852.70
2019-05-01T03:34:26.785Z,97846.12
2019-05-01T03:36:57.999Z,97844.20
2019-05-01T03:39:29.551Z,97844.91
2019-05-01T03:42:00.541Z,97839.20
2019-05-01T03:44:30.934Z,97842.87
2019-05-01T03:47:01.873Z,97841.45
2019-05-01T03:49:32.541Z,97846.50
2019-05-01T03:52:03.171Z,97840.64
2019-05-01T03:54:34.700Z,97840.52
2019-05-01T03:57:05.165Z,97833.84
2019-05-01T03:59:36.459Z,97831.42
2019-05-01T04:02:33.407Z,97833.24
2019-05-01T04:04:58.689Z,97830.52
2019-05-01T04:07:29.421Z,97834.56
2019-05-01T04:09:59.951Z,97831.30
2019-05-01T04:12:30.319Z,97832.62
2019-05-01T04:15:01.021Z,97826.67
2019-05-01T04:17:40.416Z,97831.49
2019-05-01T04:20:11.064Z,97825.86
2019-05-01T04:22:43.341Z,97832.12
2019-05-01T04:25:23.606Z,97828.89
2019-05-01T04:27:58.779Z,97832.84
2019-05-01T04:30:50.153Z,97830.02
2019-05-01T04:33:21.370Z,97839.32
2019-05-01T04:36:06.215Z,97838.00
2019-05-01T04:38:38.112Z,97837.62
2019-05-01T04:41:10.482Z,97839.65
2019-05-01T04:43:42.518Z,97838.33
2019-05-01T04:46:14.811Z,97847.77
2019-05-01T04:48:45.919Z,97846.63
2019-05-01T04:51:17.155Z,97844.82
2019-05-01T04:53:48.113Z,97850.89
2019-05-01T04:56:22.159Z,97853.32
2019-05-01T04:58:53.180Z,97853.61
2019-05-01T05:03:04.950Z,97848.53
2019-05-01T05:05:34.346Z,97847.28
2019-05-01T05:08:20.381Z,97855.39
2019-05-01T05:10:52.637Z,97855.44
2019-05-01T05:13:49.031Z,97859.48
2019-05-01T05:16:31.877Z,97858.16
2019-05-01T05:19:03.472Z,97859.17
2019-05-01T05:21:37.637Z,97861.69
2019-05-01T05:24:09.336Z,97858.37
2019-05-01T05:26:40.748Z,97864.80
2019-05-01T05:29:13.453Z,97856.36
2019-05-01T05:31:47.191Z,97851.53
2019-05-01T05:34:21.028Z,97859.09
2019-05-01T05:36:56.126Z,97866.94
2019-05-01T05:39:36.660Z,97863.16
2019-05-01T05:42:13.280Z,97858.52
2019-05-01T05:44:49.241Z,97859.87
2019-05-01T05:47:20.147Z,97865.44
2019-05-01T05:49:50.861Z,97868.00
2019-05-01T05:52:44.876Z,97874.41
2019-05-01T05:55:39.850Z,97873.41
2019-05-01T05:58:29.111Z,97869.61
2019-05-01T06:01:30.945Z,97871.12
2019-05-01T06:04:25.271Z,97868.10
2019-05-01T06:07:16.708Z,97867.69
2019-05-01T06:10:25.908Z,97861.15
2019-05-01T06:13:24.178Z,97866.34
2019-05-01T06:16:22.408Z,97862.91
2019-05-01T06:19:03.414Z,97862.15
2019-05-01T06:21:46.405Z,97866.34
2019-05-01T06:24:26.346Z,97869.05
2019-05-01T06:26:56.830Z,97866.43
2019-05-01T06:29:30.924Z,97864.41
2019-05-01T06:32:00.094Z,97863.52
2019-05-01T06:34:30.985Z,97866.55
2019-05-01T06:37:01.478Z,97865.52
2019-05-01T06:39:33.005Z,97865.02
2019-05-01T06:42:04.722Z,97863.14
2019-05-01T06:44:44.312Z,97863.50
2019-05-01T06:47:38.135Z,97859.93
2019-05-01T06:50:28.447Z,97862.77
2019-05-01T06:52:59.770Z,97863.50
2019-05-01T06:55:32.160Z,97865.87
2019-05-01T06:58:02.457Z,97862.06
2019-05-01T07:02:57.827Z,97858.80
2019-05-01T07:05:31.421Z,97864.20
2019-05-01T07:08:04.969Z,97865.08
2019-05-01T07:10:43.914Z,97866.85
2019-05-01T07:13:18.413Z,97864.13
2019-05-01T07:15:48.970Z,97863.83
2019-05-01T07:18:28.812Z,97867.22
2019-05-01T07:21:05.417Z,97864.84
2019-05-01T07:23:39.310Z,97865.16
2019-05-01T07:26:13.695Z,97872.69
2019-05-01T07:28:45.382Z,97868.40
2019-05-01T07:31:19.769Z,97871.22
2019-05-01T07:33:52.374Z,97870.06
2019-05-01T07:36:28.972Z,97874.24
2019-05-01T07:39:09.947Z,97870.16
2019-05-01T07:41:47.814Z,97869.84
2019-05-01T07:44:43.761Z,97872.34
2019-05-01T07:47:40.812Z,97867.57
2019-05-01T07:51:30.649Z,97862.47
2019-05-01T07:53:03.255Z,97862.75
2019-05-01T07:56:00.306Z,97865.17
2019-05-01T07:58:41.371Z,97864.85
2019-05-01T08:01:58.848Z,97864.94
2019-05-01T08:04:37.928Z,97862.77
2019-05-01T08:07:41.048Z,97867.59
2019-05-01T08:11:10.461Z,97871.09
2019-05-01T08:14:07.535Z,97867.05
2019-05-01T08:16:42.412Z,97869.69
2019-05-01T08:19:52.352Z,97869.88
2019-05-01T08:23:00.855Z,97864.20
2019-05-01T08:25:36.734Z,97875.00
2019-05-01T08:28:27.726Z,97867.00
2019-05-01T08:31:23.051Z,97867.29
2019-05-01T08:34:04.817Z,97863.16
2019-05-01T08:36:46.824Z,97859.70
2019-05-01T08:39:28.388Z,97857.94
2019-05-01T08:42:03.116Z,97857.61
2019-05-01T08:44:51.536Z,97858.55
2019-05-01T08:47:33.357Z,97853.64
2019-05-01T08:50:24.790Z,97853.66
2019-05-01T08:53:03.408Z,97857.71
2019-05-01T08:55:39.966Z,97849.77
2019-05-01T08:58:22.130Z,97859.55
2019-05-01T09:03:07.854Z,97851.41
2019-05-01T09:05:41.238Z,97853.79
2019-05-01T09:08:26.986Z,97856.73
2019-05-01T09:11:07.572Z,97853.90
2019-05-01T09:13:47.720Z,97852.77
2019-05-01T09:16:28.391Z,97858.31
2019-05-01T09:19:05.663Z,97850.95
2019-05-01T09:21:40.744Z,97851.61
2019-05-01T09:24:31.564Z,97855.25
2019-05-01T09:27:31.148Z,97845.47
2019-05-01T09:30:14.979Z,97841.28
2019-05-01T09:32:54.274Z,97844.44
2019-05-01T09:35:32.419Z,97835.41
2019-05-01T09:38:37.270Z,97841.58
2019-05-01T09:41:08.794Z,97844.97
2019-05-01T09:43:56.635Z,97844.55
2019-05-01T09:46:29.843Z,97839.06
2019-05-01T09:49:07.244Z,97837.91
2019-05-01T09:52:00.810Z,97836.98
2019-05-01T09:54:53.276Z,97836.81
2019-05-01T09:57:31.088Z,97837.56
2019-05-01T10:00:03.390Z,97837.48
2019-05-01T10:02:42.101Z,97831.06
2019-05-01T10:05:28.678Z,97828.73
2019-05-01T10:08:04.056Z,97830.59
2019-05-01T10:10:37.983Z,97822.24
2019-05-01T10:13:10.427Z,97821.30
2019-05-01T10:15:42.695Z,97822.23
2019-05-01T10:18:14.468Z,97819.64
2019-05-01T10:20:49.890Z,97821.35
2019-05-01T10:23:29.666Z,97815.70
2019-05-01T10:26:04.600Z,97814.41
2019-05-01T10:28:49.986Z,97814.63
2019-05-01T10:31:48.713Z,97810.67
2019-05-01T10:34:42.925Z,97805.97
2019-05-01T10:37:15.018Z,97797.55
2019-05-01T10:39:50.159Z,97799.48
2019-05-01T10:42:25.055Z,97796.58
2019-05-01T10:44:58.920Z,97795.04
2019-05-01T10:47:36.719Z,97791.91
2019-05-01T10:50:09.967Z,97785.30
2019-05-01T10:52:46.718Z,97783.52
2019-05-01T10:55:19.874Z,97786.71
2019-05-01T10:57:53.185Z,97772.94
2019-05-01T11:03:03.215Z,97776.36
2019-05-01T11:05:39.158Z,97778.39
2019-05-01T11:08:19.610Z,97775.88
2019-05-01T11:10:51.095Z,97762.88
2019-05-01T11:13:24.471Z,97762.01
2019-05-01T11:15:57.438Z,97756.30
2019-05-01T11:18:41.870Z,97754.95
2019-05-01T11:21:25.447Z,97755.27
2019-05-01T11:24:05.649Z,97751.77
2019-05-01T11:26:43.086Z,97749.09
2019-05-01T11:29:19.180Z,97753.47
2019-05-01T11:32:18.561Z,97750.56
2019-05-01T11:35:23.078Z,97745.74
2019-05-01T11:38:13.233Z,97745.00
2019-05-01T11:40:54.368Z,97748.97
2019-05-01T11:43:27.430Z,97735.22
2019-05-01T11:46:04.794Z,97742.59
2019-05-01T11:48:49.327Z,97743.01
2019-05-01T11:51:21.766Z,97730.73
2019-05-01T11:53:55.159Z,97725.89
2019-05-01T11:56:26.080Z,97729.41
2019-05-01T11:59:00.917Z,97725.93
2019-05-01T12:01:35.614Z,97730.61
2019-05-01T12:04:07.066Z,97733.36
2019-05-01T12:06:40.551Z,97727.31
2019-05-01T12:09:12.700Z,97723.13
2019-05-01T12:11:47.376Z,97722.17
2019-05-01T12:14:23.905Z,97725.62
2019-05-01T12:17:25.315Z,97717.33
2019-05-01T12:19:58.362Z,97713.09
2019-05-01T12:22:31.963Z,97707.30
2019-05-01T12:25:06.377Z,97711.14
2019-05-01T12:27:39.658Z,97710.93
2019-05-01T12:30:14.308Z,97707.21
2019-05-01T12:32:49.881Z,97705.59
2019-05-01T12:35:21.129Z,97710.80
2019-05-01T12:37:56.628Z,97703.27
2019-05-01T12:40:27.876Z,97705.95
2019-05-01T12:42:59.325Z,97701.67
2019-05-01T12:45:31.885Z,97699.41
2019-05-01T12:48:10.608Z,97688.49
2019-05-01T12:50:42.661Z,97696.36
2019-05-01T12:53:27.268Z,97687.73
2019-05-01T12:56:18.478Z,97681.00
2019-05-01T12:58:52.429Z,97681.96
2019-05-01T13:03:01.543Z,97673.38
2019-05-01T13:05:33.037Z,97670.53
2019-05-01T13:08:04.074Z,97659.94
2019-05-01T13:10:34.890Z,97663.81
2019-05-01T13:13:10.866Z,97656.30
2019-05-01T13:15:41.206Z,97655.34
2019-05-01T13:18:12.394Z,97651.30
2019-05-01T13:20:44.310Z,97645.78
2019-05-01T13:23:15.994Z,97642.83
2019-05-01T13:25:49.885Z,97639.48
2019-05-01T13:28:46.292Z,97636.66
2019-05-01T13:31:30.572Z,97643.44
2019-05-01T13:34:01.625Z,97633.63
2019-05-01T13:36:32.445Z,97627.34
2019-05-01T13:39:03.957Z,97632.27
2019-05-01T13:41:35.811Z,97628.45
2019-05-01T13:44:08.284Z,97625.06
2019-05-01T13:46:43.717Z,97627.22
2019-05-01T13:49:18.654Z,97619.61
2019-05-01T13:51:51.701Z,97614.33
2019-05-01T13:54:23.266Z,97609.13
2019-05-01T13:56:54.396Z,97601.92
2019-05-01T13:59:25.069Z,97604.89
2019-05-01T14:02:00.870Z,97598.14
2019-05-01T14:04:32.402Z,97596.99
2019-05-01T14:07:15.845Z,97596.57
2019-05-01T14:09:40.792Z,97590.50
2019-05-01T14:12:12.624Z,97588.05
2019-05-01T14:14:47.368Z,97583.99
2019-05-01T14:17:19.715Z,97580.03
2019-05-01T14:20:01.503Z,97579.86
2019-05-01T14:22:58.051Z,97570.78
2019-05-01T14:25:48.697Z,97572.38
2019-05-01T14:28:22.163Z,97566.59
2019-05-01T14:30:53.198Z,97563.48
2019-05-01T14:33:24.429Z,97565.67
2019-05-01T14:35:56.368Z,97565.11
2019-05-01T14:38:26.852Z,97568.50
2019-05-01T14:41:00.126Z,97556.69
2019-05-01T14:43:34.649Z,97559.55
2019-05-01T14:46:07.195Z,97559.04
2019-05-01T14:48:38.925Z,97556.34
2019-05-01T14:51:09.347Z,97554.91
2019-05-01T14:53:42.602Z,97546.47
2019-05-01T14:56:15.308Z,97548.98
2019-05-01T14:58:48.735Z,97545.36
2019-05-01T15:02:53.107Z,97539.72
2019-05-01T15:05:27.224Z,97543.80
2019-05-01T15:07:58.966Z,97543.17
2019-05-01T15:10:41.837Z,97543.41
2019-05-01T15:13:25.443Z,97538.05
2019-05-01T15:16:15.206Z,97539.23
2019-05-01T15:18:59.522Z,97522.36
2019-05-01T15:21:33.898Z,97523.72
2019-05-01T15:24:08.673Z,97524.08
2019-05-01T15:26:47.104Z,97524.84
2019-05-01T15:29:23.864Z,97521.59
2019-05-01T15:31:58.450Z,97526.73
2019-05-01T15:34:29.389Z,97521.27
2019-05-01T15:37:00.579Z,97519.50
2019-05-01T15:39:40.041Z,97520.09
2019-05-01T15:42:30.028Z,97517.01
2019-05-01T15:45:02.382Z,97515.83
2019-05-01T15:47:35.087Z,97512.33
2019-05-01T15:50:11.345Z,97515.64
2019-05-01T15:52:43.223Z,97507.47
2019-05-01T15:55:17.433Z,97509.11
2019-05-01T15:57:52.073Z,97505.78
2019-05-01T16:00:23.730Z,97504.98
2019-05-01T16:02:55.523Z,97501.13
2019-05-01T16:05:27.554Z,97502.57
2019-05-01T16:08:09.481Z,97502.23
2019-05-01T16:10:37.362Z,97502.84
2019-05-01T16:13:09.022Z,97500.63
2019-05-01T16:15:42.906Z,97499.73
2019-05-01T16:18:14.227Z,97495.06
2019-05-01T16:20:48.552Z,97496.50
2019-05-01T16:23:20.882Z,97502.63
2019-05-01T16:25:52.406Z,97492.30
2019-05-01T16:28:23.068Z,97491.45
2019-05-01T16:30:54.210Z,97490.17
2019-05-01T16:33:24.743Z,97491.22
2019-05-01T16:35:55.608Z,97489.58
2019-05-01T16:38:38.580Z,97485.75
2019-05-01T16:41:12.360Z,97486.80
2019-05-01T16:43:43.893Z,97486.13
2019-05-01T16:46:14.726Z,97485.53
2019-05-01T16:48:45.485Z,97482.82
2019-05-01T16:51:19.729Z,97483.69
2019-05-01T16:53:51.948Z,97480.50
2019-05-01T16:56:23.028Z,97478.53
2019-05-01T16:58:57.159Z,97476.59
2019-05-01T17:03:09.975Z,97480.25
2019-05-01T17:05:57.758Z,97478.09
2019-05-01T17:08:36.981Z,97476.77
2019-05-01T17:11:10.573Z,97469.87
2019-05-01T17:13:41.269Z,97469.09
2019-05-01T17:16:12.099Z,97471.59
2019-05-01T17:18:42.532Z,97467.48
2019-05-01T17:21:12.995Z,97465.72
2019-05-01T17:23:43.409Z,97462.19
2019-05-01T17:26:14.626Z,97464.88
2019-05-01T17:28:45.080Z,97474.14
2019-05-01T17:31:15.827Z,97466.03
2019-05-01T17:33:46.481Z,97467.39
2019-05-01T17:36:17.004Z,97465.25
2019-05-01T17:38:49.613Z,97470.58
2019-05-01T17:41:22.773Z,97466.67
2019-05-01T17:43:52.172Z,97472.95
2019-05-01T17:46:22.808Z,97465.97
2019-05-01T17:48:53.615Z,97466.59
2019-05-01T17:51:24.236Z,97457.94
2019-05-01T17:53:57.782Z,97468.36
2019-05-01T17:56:30.929Z,97462.79
2019-05-01T17:59:01.589Z,97461.86
2019-05-01T18:01:51.220Z,97465.95
2019-05-01T18:04:31.215Z,97463.44
2019-05-01T18:07:01.914Z,97462.16
2019-05-01T18:09:32.342Z,97462.55
2019-05-01T18:12:05.834Z,97464.16
2019-05-01T18:14:36.269Z,97459.62
2019-05-01T18:17:09.799Z,97462.58
2019-05-01T18:19:40.331Z,97461.74
2019-05-01T18:22:22.310Z,97464.03
2019-05-01T18:25:04.691Z,97462.20
2019-05-01T18:27:54.456Z,97459.88
2019-05-01T18:30:29.501Z,97458.70
2019-05-01T18:33:00.002Z,97468.08
2019-05-01T18:35:30.250Z,97467.07
2019-05-01T18:38:13.042Z,97468.10
2019-05-01T18:40:49.145Z,97472.33
2019-05-01T18:43:19.711Z,97468.18
2019-05-01T18:45:57.450Z,97464.89
2019-05-01T18:48:28.148Z,97471.77
2019-05-01T18:50:59.147Z,97471.33
2019-05-01T18:53:29.489Z,97471.68
2019-05-01T18:56:01.431Z,97470.14
2019-05-01T18:58:36.672Z,97471.53
2019-05-01T19:02:53.102Z,97477.08
2019-05-01T19:05:23.591Z,97471.05
2019-05-01T19:07:54.148Z,97474.81
2019-05-01T19:10:24.673Z,97476.73
2019-05-01T19:12:55.519Z,97474.09
2019-05-01T19:15:29.087Z,97476.25
2019-05-01T19:18:00.819Z,97466.39
2019-05-01T19:20:36.308Z,97484.28
2019-05-01T19:23:07.160Z,97482.38
2019-05-01T19:25:37.456Z,97482.39
2019-05-01T19:28:09.713Z,97481.34
2019-05-01T19:30:42.723Z,97484.79
2019-05-01T19:33:13.106Z,97480.76
2019-05-01T19:35:43.789Z,97474.86
2019-05-01T19:38:14.678Z,97481.79
2019-05-01T19:40:45.217Z,97478.08
2019-05-01T19:43:15.795Z,97483.64
2019-05-01T19:45:46.439Z,97485.53
2019-05-01T19:48:17.141Z,97486.55
2019-05-01T19:50:48.627Z,97482.53
2019-05-01T19:53:19.915Z,97483.53
2019-05-01T19:55:52.315Z,97483.51
2019-05-01T19:58:22.801Z,97483.48
2019-05-01T20:00:59.215Z,97479.73
2019-05-01T20:03:30.618Z,97478.39
2019-05-01T20:06:05.243Z,97481.77
2019-05-01T20:08:34.324Z,97479.28
2019-05-01T20:11:05.108Z,97472.63
2019-05-01T20:13:35.495Z,97477.95
2019-05-01T20:16:09.471Z,97470.16
2019-05-01T20:18:40.413Z,97470.93
2019-05-01T20:21:11.243Z,97468.18
2019-05-01T20:23:45.143Z,97466.80
2019-05-01T20:26:15.943Z,97466.72
2019-05-01T20:28:47.130Z,97468.28
2019-05-01T20:31:18.478Z,97463.43
2019-05-01T20:33:49.705Z,97465.56
2019-05-01T20:36:20.147Z,97463.37
2019-05-01T20:38:50.662Z,97466.20
2019-05-01T20:41:21.173Z,97463.96
2019-05-01T20:43:51.711Z,97460.48
2019-05-01T20:46:26.231Z,97463.38
2019-05-01T20:48:55.913Z,97464.18
2019-05-01T20:51:26.608Z,97461.02
2019-05-01T20:53:57.070Z,97459.84
2019-05-01T20:56:35.731Z,97455.05
2019-05-01T20:59:06.167Z,97461.76
2019-05-01T21:02:55.988Z,97455.65
2019-05-01T21:05:34.301Z,97460.91
2019-05-01T21:08:14.399Z,97458.83
2019-05-01T21:11:05.906Z,97463.98
2019-05-01T21:13:34.638Z,97458.02
2019-05-01T21:16:06.494Z,97455.26
2019-05-01T21:18:36.990Z,97456.10
2019-05-01T21:21:11.542Z,97454.99
2019-05-01T21:23:48.180Z,97453.19
2019-05-01T21:26:17.294Z,97453.42
2019-05-01T21:28:48.173Z,97451.42
2019-05-01T21:31:18.459Z,97458.67
2019-05-01T21:33:50.518Z,97446.31
2019-05-01T21:36:23.179Z,97448.07
2019-05-01T21:38:53.293Z,97449.54
2019-05-01T21:41:24.002Z,97446.52
2019-05-01T21:43:54.742Z,97446.45
2019-05-01T21:46:25.330Z,97443.47
2019-05-01T21:48:56.208Z,97442.77
2019-05-01T21:51:26.539Z,97439.58
2019-05-01T21:53:57.459Z,97442.38
2019-05-01T21:56:28.311Z,97444.02
2019-05-01T21:59:06.654Z,97437.80
2019-05-01T22:01:34.922Z,97440.58
2019-05-01T22:04:06.166Z,97433.08
2019-05-01T22:06:36.747Z,97433.94
2019-05-01T22:09:15.276Z,97435.52
2019-05-01T22:11:47.271Z,97437.66
2019-05-01T22:14:42.160Z,97432.92
2019-05-01T22:17:20.137Z,97432.63
2019-05-01T22:19:50.600Z,97426.86
2019-05-01T22:22:32.791Z,97427.58
2019-05-01T22:25:13.067Z,97427.21
2019-05-01T22:27:46.872Z,97424.82
2019-05-01T22:30:25.566Z,97421.80
2019-05-01T22:32:56.692Z,97422.87
2019-05-01T22:35:29.840Z,97422.69
2019-05-01T22:38:00.184Z,97419.38
2019-05-01T22:40:42.356Z,97418.88
2019-05-01T22:43:12.874Z,97416.74
2019-05-01T22:45:43.482Z,97416.77
2019-05-01T22:48:14.035Z,97416.98
2019-05-01T22:50:44.394Z,97409.72
2019-05-01T22:53:14.825Z,97410.29
2019-05-01T22:55:47.626Z,97413.84
2019-05-01T22:58:18.043Z,97411.59
2019-05-01T23:03:05.345Z,97405.66
2019-05-01T23:05:34.550Z,97410.60
2019-05-01T23:08:05.071Z,97410.16
2019-05-01T23:10:35.692Z,97400.38
2019-05-01T23:13:06.586Z,97398.84
2019-05-01T23:15:37.312Z,97397.03
2019-05-01T23:18:10.652Z,97396.80
2019-05-01T23:20:46.151Z,97390.28
2019-05-01T23:23:16.708Z,97389.63
2019-05-01T23:25:47.148Z,97386.42
2019-05-01T23:28:17.635Z,97391.41
2019-05-01T23:30:48.061Z,97383.83
2019-05-01T23:33:21.384Z,97383.31
2019-05-01T23:35:54.490Z,97384.89
2019-05-01T23:38:25.230Z,97380.88
2019-05-01T23:40:55.631Z,97379.76
2019-05-01T23:43:27.764Z,97381.22
2019-05-01T23:45:58.287Z,97375.41
2019-05-01T23:48:29.100Z,97378.09
2019-05-01T23:50:59.444Z,97371.44
2019-05-01T23:53:30.632Z,97367.08
2019-05-01T23:56:02.084Z,97366.01
2019-05-01T23:58:32.506Z,97362.84
